createdAt,value
2023-05-03T00:00:17.523Z,4.27
2023-05-03T00:02:46.714Z,4.80
2023-05-03T00:05:15.700Z,5.03
2023-05-03T00:07:45.905Z,4.60
2023-05-03T00:10:16.022Z,4.57
2023-05-03T00:12:45.363Z,4.47
2023-05-03T00:15:13.597Z,5.27
2023-05-03T00:17:41.905Z,4.50
2023-05-03T00:20:12.151Z,4.50
2023-05-03T00:22:40.478Z,5.80
2023-05-03T00:25:11.108Z,4.43
2023-05-03T00:27:39.569Z,4.93
2023-05-03T00:30:09.716Z,4.40
2023-05-03T00:32:38.237Z,5.37
2023-05-03T00:35:07.441Z,4.40
2023-05-03T00:37:36.378Z,5.13
2023-05-03T00:40:05.827Z,4.77
2023-05-03T00:42:37.393Z,4.77
2023-05-03T00:45:08.240Z,4.90
2023-05-03T00:47:37.759Z,4.40
2023-05-03T00:50:07.618Z,4.20
2023-05-03T00:52:36.007Z,4.23
2023-05-03T00:55:04.262Z,4.60
2023-05-03T00:57:32.767Z,5.43
2023-05-03T01:00:04.049Z,3.67
2023-05-03T01:02:32.860Z,3.87
2023-05-03T01:05:02.660Z,4.07
2023-05-03T01:07:37.148Z,4.07
2023-05-03T01:10:17.933Z,4.53
2023-05-03T01:12:55.145Z,4.63
2023-05-03T01:15:36.709Z,4.70
2023-05-03T01:18:09.119Z,3.77
2023-05-03T01:20:39.393Z,4.27
2023-05-03T01:23:19.580Z,4.73
2023-05-03T01:25:49.431Z,4.20
2023-05-03T01:28:17.830Z,3.93
2023-05-03T01:30:46.656Z,4.40
2023-05-03T01:33:18.303Z,4.10
2023-05-03T01:35:51.986Z,4.30
2023-05-03T01:38:20.738Z,4.00
2023-05-03T01:40:53.682Z,3.90
2023-05-03T01:43:22.606Z,3.57
2023-05-03T01:45:51.325Z,3.73
2023-05-03T01:48:20.482Z,3.90
2023-05-03T01:50:48.969Z,4.07
2023-05-03T01:53:17.497Z,3.20
2023-05-03T01:55:45.822Z,3.80
2023-05-03T01:58:16.176Z,3.40
2023-05-03T02:00:46.803Z,4.10
2023-05-03T02:03:16.230Z,3.70
2023-05-03T02:05:45.362Z,3.17
2023-05-03T02:08:13.830Z,2.77
2023-05-03T02:10:45.272Z,2.97
2023-05-03T02:13:17.690Z,3.50
2023-05-03T02:15:46.158Z,3.37
2023-05-03T02:18:16.561Z,3.20
2023-05-03T02:20:46.820Z,3.63
2023-05-03T02:23:15.214Z,3.70
2023-05-03T02:25:43.582Z,3.50
2023-05-03T02:28:11.872Z,3.30
2023-05-03T02:30:41.763Z,3.47
2023-05-03T02:33:10.584Z,3.77
2023-05-03T02:35:40.589Z,3.17
2023-05-03T02:38:08.949Z,3.20
2023-05-03T02:40:37.976Z,2.90
2023-05-03T02:43:06.632Z,3.60
2023-05-03T02:45:36.683Z,3.30
2023-05-03T02:48:07.081Z,3.50
2023-05-03T02:50:35.792Z,3.30
2023-05-03T02:53:04.425Z,4.10
2023-05-03T02:55:32.967Z,3.13
2023-05-03T02:58:01.585Z,2.40
2023-05-03T03:00:30.113Z,2.87
2023-05-03T03:02:58.607Z,1.77
2023-05-03T03:05:28.598Z,2.93
2023-05-03T03:07:56.978Z,2.50
2023-05-03T03:10:25.825Z,3.10
2023-05-03T03:12:54.154Z,2.33
2023-05-03T03:15:31.801Z,2.53
2023-05-03T03:18:00.318Z,2.30
2023-05-03T03:20:30.142Z,2.60
2023-05-03T03:22:58.943Z,2.40
2023-05-03T03:25:28.092Z,2.50
2023-05-03T03:27:58.500Z,2.43
2023-05-03T03:30:27.443Z,2.60
2023-05-03T03:33:06.493Z,2.80
2023-05-03T03:35:41.625Z,2.30
2023-05-03T03:38:10.933Z,2.50
2023-05-03T03:40:45.475Z,2.27
2023-05-03T03:43:13.867Z,1.97
2023-05-03T03:45:42.345Z,2.10
2023-05-03T03:48:14.127Z,2.37
2023-05-03T03:50:43.894Z,1.90
2023-05-03T03:53:14.736Z,2.03
2023-05-03T03:55:42.973Z,1.73
2023-05-03T03:58:11.373Z,1.33
2023-05-03T04:00:40.211Z,1.70
2023-05-03T04:03:14.612Z,1.80
2023-05-03T04:05:44.782Z,2.10
2023-05-03T04:08:13.488Z,2.00
2023-05-03T04:10:42.789Z,1.70
2023-05-03T04:13:11.234Z,1.47
2023-05-03T04:15:40.144Z,2.00
2023-05-03T04:18:08.902Z,1.40
2023-05-03T04:20:39.779Z,1.70
2023-05-03T04:23:12.301Z,2.20
2023-05-03T04:25:46.832Z,1.57
2023-05-03T04:28:16.334Z,2.53
2023-05-03T04:30:48.453Z,2.07
2023-05-03T04:33:22.712Z,2.20
2023-05-03T04:35:53.438Z,1.53
2023-05-03T04:38:23.460Z,1.90
2023-05-03T04:40:52.138Z,2.07
2023-05-03T04:43:20.823Z,1.70
2023-05-03T04:45:50.648Z,2.17
2023-05-03T04:48:23.636Z,2.40
2023-05-03T04:50:52.784Z,2.20
2023-05-03T04:53:24.528Z,1.87
2023-05-03T04:56:04.446Z,2.33
2023-05-03T04:58:36.755Z,1.80
2023-05-03T05:01:05.757Z,1.40
2023-05-03T05:03:34.121Z,1.80
2023-05-03T05:06:12.451Z,2.20
2023-05-03T05:08:44.546Z,2.50
2023-05-03T05:11:16.281Z,2.10
2023-05-03T05:13:44.923Z,2.10
2023-05-03T05:16:25.060Z,1.90
2023-05-03T05:18:59.262Z,2.10
2023-05-03T05:21:28.864Z,1.57
2023-05-03T05:23:59.448Z,2.40
2023-05-03T05:26:28.493Z,2.70
2023-05-03T05:32:08.460Z,2.00
2023-05-03T05:34:44.660Z,2.40
2023-05-03T05:37:16.949Z,2.63
2023-05-03T05:39:48.196Z,2.87
2023-05-03T05:42:18.819Z,2.13
2023-05-03T05:44:47.276Z,2.50
2023-05-03T05:47:16.213Z,1.33
2023-05-03T05:49:46.696Z,0.90
2023-05-03T05:52:16.712Z,1.80
2023-05-03T05:54:45.168Z,1.87
2023-05-03T05:57:15.152Z,1.87
2023-05-03T05:59:43.542Z,2.43
2023-05-03T06:02:17.977Z,2.00
2023-05-03T06:04:48.198Z,2.43
2023-05-03T06:07:17.034Z,1.77
2023-05-03T06:09:46.630Z,2.53
2023-05-03T06:12:17.681Z,3.30
2023-05-03T06:15:01.068Z,2.40
2023-05-03T06:17:38.489Z,2.53
2023-05-03T06:20:11.851Z,1.10
2023-05-03T06:22:41.227Z,1.90
2023-05-03T06:25:16.226Z,2.10
2023-05-03T06:27:49.560Z,2.43
2023-05-03T06:30:20.591Z,2.33
2023-05-03T06:32:50.612Z,2.70
2023-05-03T06:35:21.998Z,0.97
2023-05-03T06:37:51.032Z,2.30
2023-05-03T06:40:19.472Z,2.57
2023-05-03T06:42:50.007Z,2.57
2023-05-03T06:45:27.003Z,2.20
2023-05-03T06:47:55.459Z,1.30
2023-05-03T06:50:24.769Z,2.40
2023-05-03T06:52:53.112Z,2.60
2023-05-03T06:55:21.371Z,2.50
2023-05-03T06:57:52.753Z,1.90
2023-05-03T07:00:23.394Z,1.40
2023-05-03T07:02:51.865Z,2.70
2023-05-03T07:05:20.583Z,2.03
2023-05-03T07:07:49.437Z,1.60
2023-05-03T07:10:17.702Z,2.30
2023-05-03T07:13:12.077Z,1.43
2023-05-03T07:15:44.314Z,1.40
2023-05-03T07:18:13.026Z,1.97
2023-05-03T07:20:41.583Z,1.20
2023-05-03T07:23:09.856Z,2.17
2023-05-03T07:25:39.488Z,1.60
2023-05-03T07:28:07.876Z,1.63
2023-05-03T07:30:36.277Z,1.90
2023-05-03T07:33:09.451Z,1.83
2023-05-03T07:35:37.697Z,1.77
2023-05-03T07:38:06.075Z,1.43
2023-05-03T07:40:34.294Z,2.17
2023-05-03T07:43:03.283Z,2.90
2023-05-03T07:45:32.394Z,2.20
2023-05-03T07:48:00.815Z,2.70
2023-05-03T07:50:30.615Z,3.07
2023-05-03T07:52:59.282Z,2.70
2023-05-03T07:55:28.481Z,2.23
2023-05-03T07:57:59.582Z,2.00
2023-05-03T08:00:29.928Z,2.50
2023-05-03T08:02:58.745Z,2.80
2023-05-03T08:05:27.433Z,3.00
2023-05-03T08:07:57.370Z,3.23
2023-05-03T08:10:25.845Z,3.57
2023-05-03T08:12:54.286Z,3.30
2023-05-03T08:15:22.948Z,3.00
2023-05-03T08:17:51.947Z,3.23
2023-05-03T08:20:21.117Z,3.30
2023-05-03T08:22:49.450Z,2.57
2023-05-03T08:25:19.785Z,3.87
2023-05-03T08:27:48.702Z,2.50
2023-05-03T08:30:17.807Z,3.07
2023-05-03T08:32:46.433Z,3.10
2023-05-03T08:35:15.428Z,2.20
2023-05-03T08:37:44.960Z,2.57
2023-05-03T08:40:15.453Z,3.27
2023-05-03T08:42:57.863Z,2.63
2023-05-03T08:45:27.022Z,2.83
2023-05-03T08:47:55.778Z,2.70
2023-05-03T08:50:24.244Z,2.63
2023-05-03T08:52:54.395Z,2.80
2023-05-03T08:55:23.897Z,3.20
2023-05-03T08:57:53.683Z,3.97
2023-05-03T09:00:29.527Z,4.10
2023-05-03T09:02:58.086Z,3.60
2023-05-03T09:05:39.028Z,2.77
2023-05-03T09:08:09.410Z,3.10
2023-05-03T09:10:39.942Z,2.57
2023-05-03T09:13:11.021Z,2.90
2023-05-03T09:15:40.108Z,2.87
2023-05-03T09:18:19.357Z,3.80
2023-05-03T09:20:53.232Z,3.30
2023-05-03T09:23:31.906Z,3.03
2023-05-03T09:26:00.848Z,3.10
2023-05-03T09:28:31.206Z,3.40
2023-05-03T09:31:07.667Z,3.23
2023-05-03T09:33:40.609Z,3.37
2023-05-03T09:36:09.718Z,2.80
2023-05-03T09:38:39.658Z,3.13
2023-05-03T09:41:08.275Z,3.50
2023-05-03T09:43:49.824Z,3.17
2023-05-03T09:46:20.674Z,3.20
2023-05-03T09:48:50.401Z,2.57
2023-05-03T09:51:18.931Z,3.30
2023-05-03T09:53:47.515Z,2.97
2023-05-03T09:56:16.484Z,3.03
2023-05-03T09:58:46.883Z,3.20
2023-05-03T10:01:16.673Z,3.20
2023-05-03T10:03:47.653Z,3.27
2023-05-03T10:06:26.872Z,3.00
2023-05-03T10:09:00.246Z,3.40
2023-05-03T10:11:31.486Z,3.47
2023-05-03T10:14:01.570Z,2.77
2023-05-03T10:16:32.802Z,3.10
2023-05-03T10:19:07.479Z,3.20
2023-05-03T10:21:44.078Z,3.27
2023-05-03T10:24:14.089Z,2.87
2023-05-03T10:26:43.104Z,3.13
2023-05-03T10:29:49.911Z,3.30
2023-05-03T10:32:32.562Z,2.93
2023-05-03T10:35:06.963Z,2.90
2023-05-03T10:37:36.262Z,3.00
2023-05-03T10:40:09.889Z,3.00
2023-05-03T10:42:38.440Z,3.00
2023-05-03T10:45:10.014Z,3.30
2023-05-03T10:47:40.864Z,3.80
2023-05-03T10:50:28.687Z,3.13
2023-05-03T10:52:56.885Z,3.70
2023-05-03T10:55:25.989Z,3.23
2023-05-03T10:57:56.581Z,3.20
2023-05-03T11:00:31.208Z,3.10
2023-05-03T11:03:27.385Z,3.10
2023-05-03T11:05:56.109Z,3.23
2023-05-03T11:08:26.012Z,2.70
2023-05-03T11:10:59.291Z,3.33
2023-05-03T11:13:27.573Z,3.73
2023-05-03T11:15:57.688Z,3.67
2023-05-03T11:18:27.985Z,3.93
2023-05-03T11:20:56.202Z,4.00
2023-05-03T11:23:27.154Z,3.40
2023-05-03T11:25:55.504Z,3.90
2023-05-03T11:28:23.914Z,4.50
2023-05-03T11:30:52.390Z,5.17
2023-05-03T11:33:22.326Z,4.80
2023-05-03T11:35:50.564Z,4.80
2023-05-03T11:38:18.848Z,5.27
2023-05-03T11:40:47.189Z,4.83
2023-05-03T11:43:15.370Z,6.53
2023-05-03T11:45:46.274Z,5.37
2023-05-03T11:48:15.241Z,5.37
2023-05-03T11:50:51.664Z,4.93
2023-05-03T11:53:20.384Z,5.63
2023-05-03T11:55:49.500Z,4.83
2023-05-03T11:58:19.917Z,5.80
2023-05-03T12:00:49.606Z,5.43
2023-05-03T12:03:19.763Z,5.73
2023-05-03T12:05:51.948Z,5.30
2023-05-03T12:08:22.106Z,4.93
2023-05-03T12:10:55.066Z,5.23
2023-05-03T12:13:34.580Z,5.40
2023-05-03T12:18:51.541Z,4.90
2023-05-03T12:23:55.693Z,5.07
2023-05-03T12:26:25.818Z,4.70
2023-05-03T12:28:56.942Z,5.10
2023-05-03T12:31:28.861Z,5.07
2023-05-03T12:34:20.091Z,4.13
2023-05-03T12:36:49.062Z,4.50
2023-05-03T12:39:21.563Z,4.70
2023-05-03T12:44:23.651Z,4.80
2023-05-03T12:46:53.396Z,5.27
2023-05-03T12:49:23.469Z,5.57
2023-05-03T12:52:11.139Z,5.80
2023-05-03T12:54:42.358Z,6.60
2023-05-03T12:57:15.595Z,6.50
2023-05-03T12:59:52.243Z,7.37
2023-05-03T13:04:59.092Z,7.00
2023-05-03T13:07:32.231Z,7.50
2023-05-03T13:12:33.545Z,7.93
2023-05-03T13:15:03.867Z,6.57
2023-05-03T13:17:33.132Z,5.80
2023-05-03T13:20:01.387Z,5.33
2023-05-03T13:22:31.995Z,6.37
2023-05-03T13:25:00.190Z,7.10
2023-05-03T13:27:28.660Z,7.27
2023-05-03T13:29:57.025Z,7.30
2023-05-03T13:32:25.780Z,8.30
2023-05-03T13:34:54.039Z,6.87
2023-05-03T13:37:22.169Z,7.37
2023-05-03T13:39:52.092Z,4.77
2023-05-03T13:42:20.419Z,7.87
2023-05-03T13:44:48.841Z,6.67
2023-05-03T13:47:17.164Z,6.80
2023-05-03T13:49:45.675Z,7.67
2023-05-03T13:52:13.858Z,7.50
2023-05-03T13:54:43.083Z,7.40
2023-05-03T13:57:12.751Z,7.60
2023-05-03T13:59:41.583Z,7.50
2023-05-03T14:02:09.819Z,8.80
2023-05-03T14:04:38.167Z,7.07
2023-05-03T14:07:06.447Z,7.90
2023-05-03T14:09:39.480Z,7.50
2023-05-03T14:12:08.741Z,7.27
2023-05-03T14:14:38.517Z,6.97
2023-05-03T14:17:08.415Z,8.37
2023-05-03T14:19:37.469Z,7.07
2023-05-03T14:22:05.686Z,7.73
2023-05-03T14:24:34.039Z,8.30
2023-05-03T14:27:03.141Z,8.80
2023-05-03T14:29:31.751Z,8.63
2023-05-03T14:32:01.344Z,8.17
2023-05-03T14:34:30.025Z,8.33
2023-05-03T14:36:58.409Z,8.63
2023-05-03T14:39:26.810Z,7.80
2023-05-03T14:41:56.413Z,8.47
2023-05-03T14:44:25.304Z,8.53
2023-05-03T14:46:54.236Z,8.70
2023-05-03T14:49:23.877Z,9.17
2023-05-03T14:51:52.343Z,8.40
2023-05-03T14:54:23.164Z,8.37
2023-05-03T14:56:51.448Z,7.90
2023-05-03T14:59:19.973Z,9.13
2023-05-03T15:01:48.190Z,9.37
2023-05-03T15:04:16.706Z,7.90
2023-05-03T15:06:46.517Z,8.00
2023-05-03T15:09:14.915Z,8.30
2023-05-03T15:11:43.210Z,9.40
2023-05-03T15:14:12.173Z,9.00
2023-05-03T15:16:40.616Z,8.80
2023-05-03T15:19:09.024Z,8.50
2023-05-03T15:21:47.654Z,9.07
2023-05-03T15:24:16.417Z,7.90
2023-05-03T15:26:44.860Z,9.20
2023-05-03T15:29:13.472Z,9.17
2023-05-03T15:31:42.802Z,8.17
2023-05-03T15:34:12.690Z,11.70
2023-05-03T15:36:41.735Z,8.20
2023-05-03T15:39:13.108Z,7.73
2023-05-03T15:41:41.412Z,8.37
2023-05-03T15:44:09.978Z,7.33
2023-05-03T15:46:40.186Z,8.30
2023-05-03T15:49:10.476Z,8.20
2023-05-03T15:51:39.396Z,7.77
2023-05-03T15:54:08.031Z,8.53
2023-05-03T15:56:38.589Z,8.53
2023-05-03T15:59:07.539Z,8.30
2023-05-03T16:01:35.718Z,8.47
2023-05-03T16:04:04.094Z,9.10
2023-05-03T16:06:32.344Z,8.03
2023-05-03T16:09:00.887Z,8.73
2023-05-03T16:11:29.074Z,8.50
2023-05-03T16:13:58.675Z,8.70
2023-05-03T16:16:27.489Z,7.80
2023-05-03T16:18:55.736Z,8.17
2023-05-03T16:21:24.057Z,8.90
2023-05-03T16:23:54.387Z,8.60
2023-05-03T16:26:22.678Z,8.97
2023-05-03T16:28:51.006Z,8.70
2023-05-03T16:31:20.703Z,7.83
2023-05-03T16:33:48.987Z,8.37
2023-05-03T16:36:18.780Z,7.70
2023-05-03T16:38:47.033Z,8.43
2023-05-03T16:41:15.346Z,6.93
2023-05-03T16:43:43.483Z,8.67
2023-05-03T16:46:11.785Z,8.40
2023-05-03T16:48:41.552Z,7.40
2023-05-03T16:51:09.935Z,9.67
2023-05-03T16:53:38.226Z,11.10
2023-05-03T16:56:07.012Z,13.47
2023-05-03T16:58:35.296Z,11.73
2023-05-03T17:01:03.546Z,11.57
2023-05-03T17:03:31.789Z,14.03
2023-05-03T17:06:03.130Z,12.60
2023-05-03T17:08:32.902Z,13.30
2023-05-03T17:11:02.496Z,13.13
2023-05-03T17:13:31.809Z,12.80
2023-05-03T17:16:00.044Z,13.63
2023-05-03T17:18:28.277Z,12.83
2023-05-03T17:21:02.020Z,12.67
2023-05-03T17:23:30.492Z,13.37
2023-05-03T17:25:59.310Z,14.17
2023-05-03T17:28:28.102Z,12.27
2023-05-03T17:30:56.402Z,13.23
2023-05-03T17:33:27.718Z,12.60
2023-05-03T17:35:57.249Z,12.53
2023-05-03T17:38:26.929Z,12.90
2023-05-03T17:40:55.803Z,12.90
2023-05-03T17:43:25.537Z,13.60
2023-05-03T17:45:54.391Z,13.30
2023-05-03T17:48:22.889Z,14.10
2023-05-03T17:50:58.815Z,13.17
2023-05-03T17:53:29.135Z,13.43
2023-05-03T17:55:58.088Z,12.50
2023-05-03T17:58:26.997Z,13.57
2023-05-03T18:00:56.934Z,13.97
2023-05-03T18:03:26.275Z,11.50
2023-05-03T18:05:56.254Z,14.93
2023-05-03T18:08:25.244Z,13.33
2023-05-03T18:10:55.642Z,13.57
2023-05-03T18:13:25.136Z,14.50
2023-05-03T18:15:54.116Z,13.43
2023-05-03T18:18:23.338Z,14.57
2023-05-03T18:20:59.047Z,15.70
2023-05-03T18:23:28.438Z,14.17
2023-05-03T18:26:00.417Z,12.57
2023-05-03T18:28:29.322Z,13.47
2023-05-03T18:30:58.094Z,13.30
2023-05-03T18:33:26.902Z,12.60
2023-05-03T18:35:55.595Z,13.80
2023-05-03T18:38:24.716Z,14.00
2023-05-03T18:40:56.036Z,13.00
2023-05-03T18:43:26.440Z,12.27
2023-05-03T18:45:55.814Z,12.77
2023-05-03T18:48:25.030Z,13.60
2023-05-03T18:50:54.738Z,13.33
2023-05-03T18:53:31.325Z,14.07
2023-05-03T18:56:00.930Z,13.53
2023-05-03T18:58:32.656Z,12.30
2023-05-03T19:01:02.415Z,13.97
2023-05-03T19:03:35.185Z,11.83
2023-05-03T19:06:05.384Z,11.03
2023-05-03T19:08:36.144Z,12.80
2023-05-03T19:11:09.406Z,13.03
2023-05-03T19:13:39.928Z,16.37
2023-05-03T19:16:09.236Z,13.43
2023-05-03T19:18:40.323Z,14.93
2023-05-03T19:21:09.706Z,16.00
2023-05-03T19:23:39.768Z,16.30
2023-05-03T19:26:10.631Z,15.37
2023-05-03T19:28:47.556Z,12.80
2023-05-03T19:31:17.937Z,14.07
2023-05-03T19:33:47.617Z,14.90
2023-05-03T19:36:17.220Z,13.80
2023-05-03T19:38:46.459Z,15.47
2023-05-03T19:41:15.668Z,14.80
2023-05-03T19:43:47.542Z,15.43
2023-05-03T19:46:17.840Z,17.33
2023-05-03T19:48:48.022Z,18.70
2023-05-03T19:51:20.500Z,14.87
2023-05-03T19:53:49.266Z,15.87
2023-05-03T19:56:18.526Z,14.40
2023-05-03T19:58:50.766Z,13.10
2023-05-03T20:01:20.573Z,9.70
2023-05-03T20:03:50.355Z,9.37
2023-05-03T20:06:19.893Z,7.30
2023-05-03T20:08:51.325Z,6.23
2023-05-03T20:11:20.893Z,6.17
2023-05-03T20:13:54.826Z,5.60
2023-05-03T20:16:27.725Z,5.57
2023-05-03T20:18:57.939Z,5.43
2023-05-03T20:21:26.622Z,4.97
2023-05-03T20:23:56.013Z,5.30
2023-05-03T20:26:25.852Z,5.87
2023-05-03T20:28:55.882Z,4.50
2023-05-03T20:31:25.241Z,4.63
2023-05-03T20:33:54.249Z,4.33
2023-05-03T20:36:22.831Z,5.43
2023-05-03T20:38:51.454Z,4.93
2023-05-03T20:41:20.030Z,4.73
2023-05-03T20:43:48.323Z,4.40
2023-05-03T20:46:18.845Z,5.40
2023-05-03T20:48:47.860Z,5.00
2023-05-03T20:51:16.138Z,5.63
2023-05-03T20:53:44.514Z,6.60
2023-05-03T20:56:12.835Z,5.37
2023-05-03T20:58:41.237Z,5.27
2023-05-03T21:01:09.537Z,5.40
2023-05-03T21:03:39.287Z,5.87
2023-05-03T21:06:07.784Z,5.80
2023-05-03T21:08:36.948Z,7.83
2023-05-03T21:11:05.346Z,9.80
2023-05-03T21:13:35.787Z,10.40
2023-05-03T21:16:04.563Z,10.77
2023-05-03T21:18:32.865Z,11.67
2023-05-03T21:21:02.683Z,10.53
2023-05-03T21:23:30.933Z,9.53
2023-05-03T21:26:00.194Z,8.63
2023-05-03T21:28:30.551Z,10.23
2023-05-03T21:30:58.908Z,9.27
2023-05-03T21:33:27.316Z,10.53
2023-05-03T21:35:55.604Z,11.30
2023-05-03T21:38:25.683Z,9.97
2023-05-03T21:40:53.918Z,10.67
2023-05-03T21:43:22.379Z,10.77
2023-05-03T21:45:50.685Z,9.50
2023-05-03T21:48:18.971Z,8.53
2023-05-03T21:50:55.313Z,9.83
2023-05-03T21:53:25.058Z,10.23
2023-05-03T21:55:53.529Z,10.53
2023-05-03T21:58:21.814Z,9.90
2023-05-03T22:00:50.148Z,10.53
2023-05-03T22:03:18.651Z,9.40
2023-05-03T22:05:48.765Z,10.23
2023-05-03T22:08:18.295Z,9.67
2023-05-03T22:10:47.955Z,10.47
2023-05-03T22:13:16.277Z,10.60
2023-05-03T22:15:44.693Z,10.70
2023-05-03T22:18:13.130Z,10.07
2023-05-03T22:20:41.411Z,9.90
2023-05-03T22:23:09.792Z,10.63
2023-05-03T22:25:38.150Z,10.77
2023-05-03T22:28:07.938Z,10.50
2023-05-03T22:30:36.219Z,10.33
2023-05-03T22:33:04.608Z,8.90
2023-05-03T22:35:32.878Z,10.63
2023-05-03T22:38:01.222Z,16.83
2023-05-03T22:40:29.395Z,10.70
2023-05-03T22:42:57.753Z,10.97
2023-05-03T22:45:27.771Z,9.30
2023-05-03T22:47:56.393Z,11.17
2023-05-03T22:50:24.765Z,9.67
2023-05-03T22:52:53.184Z,8.77
2023-05-03T22:55:21.497Z,9.70
2023-05-03T22:57:49.747Z,11.30
2023-05-03T23:00:18.214Z,9.10
2023-05-03T23:02:48.647Z,10.97
2023-05-03T23:05:16.982Z,10.50
2023-05-03T23:07:45.366Z,9.80
2023-05-03T23:10:13.856Z,9.17
2023-05-03T23:12:42.129Z,10.47
2023-05-03T23:15:11.425Z,11.10
2023-05-03T23:17:40.084Z,9.47
2023-05-03T23:20:11.843Z,9.10
2023-05-03T23:22:41.105Z,10.70
2023-05-03T23:25:10.776Z,9.73
2023-05-03T23:27:39.056Z,11.83
2023-05-03T23:30:09.142Z,10.83
2023-05-03T23:32:38.127Z,10.47
2023-05-03T23:35:07.531Z,10.67
2023-05-03T23:37:37.854Z,11.10
2023-05-03T23:40:07.334Z,10.80
2023-05-03T23:42:35.702Z,10.87
2023-05-03T23:45:04.045Z,10.83
2023-05-03T23:47:32.380Z,10.40
2023-05-03T23:50:00.698Z,10.67
2023-05-03T23:52:29.015Z,11.53
2023-05-03T23:54:58.583Z,10.67
2023-05-03T23:57:26.976Z,9.90
2023-05-03T23:59:55.539Z,10.50
